world map with QRA marked

QRA - Airport

This information may not be accurate or current and is not valid for navigation or flight planning. No warranty of fitness for any purpose is made or implied.

flag of Gautengflag of South Africa

Donate via PayPal

Additional information is available on the NEW Great Circle Mapper

Location
City:  Johannesburg, Gauteng, South Africa
Name:Rand/Germiston Airport
ICAO / IATA:FAGM / QRA

Details
Type:Airport (Aerodrome, Airfield)
Use:Public/Civil
Latitude:26°14'33"S (-26.242505)
Longitude:28°09'04"E (28.151169)
Datum:WGS 1984
Elevation:5483 ft (1671 m)
Runways:2
Longest:5617 × 50 ft (1712 × 15 m)

Time
Timezone:UTC+2 (DST+4)
Local Time:

Weather
METAR:FAGM  131500Z 23011KT CAVOK 32/M05 Q1024

Related Locations
Nearby:
Farthest:HNM: 11977 mi / 19275 km
Hana, Maui, HI, US

Find:

   beyond  
but within

Other Information
Maps:
Sources:

  


 


Great Circle Mapper   Great Circle Mapper
Great Circle Mapper FAQ   Great Circle Mapper FAQ
  Karl's Home Page
KLSē   KLSē Home
   GC on Facebook
Airlines of the World   Airlines of the World
Donate via PayPal


Copyright © 2004-2018, Karl L. Swartz. All rights reserved.
All trademarks mentioned herein belong to their respective owners.

Please see credits for attribution and copyright information.

Karl Swartz <karl@kls2.com>
  Powered by FreeBSD
Valid HTML 4.01!
Labeled with ICRA
hCard Microformat
Geo Microformat